OSH weather

Wittman Regional Airport
Oshkosh, Wisconsin, United States

Public forecast

Using degrees Fahrenheit for public forecast. Weather courtesy of forecast.io.

METAR (pilot weather report)

Retrieved 2019/05/24 01:53 UTC (1 hour ago):

KOSH 240153Z 30005KT 10SM CLR 14/08 A3009 RMK AO2 SLP187 T01440083

TAF (pilot weather forecast)

Forecast is more than 12 hours old.

Retrieved 2018/10/11 06:22 UTC (7 months ago):

TAF KOSH 110520Z 1106/1206 25016G28KT P6SM BKN015 FM111300 27017G28KT P6SM BKN020 FM111400 27018G29KT P6SM BKN015 FM112100 29018G30KT P6SM BKN050 FM120000 29013G24KT P6SM SCT120